Decoded Metar for LFBH (LA ROCHELLE/LALE in FRANCE) (IATA:N/A) | Meteo·Mobile Aviation Weather
aviador You're here:

LFBH Decoded Metar

LA ROCHELLE/LALE in FRANCE
Report Time2019-03-20 01:30:00
UTC Time2019-03-20 01:49:00
Flight Rules vfr VFR
Wind040° at 04 kt
W.Decomp.*RWY 09: 2.6 kt HW 3 kt LCW
W.Rank040° ranks 17
Current wind is below 040° avg. (7.0)
Visibility9999 m
Phenomena:N/A
Clouds:N/A
Expected CloudBase > 800 ft AGL from Temp-Dew spread
CeilingNone
Temp05°C (ISA -10)
Dew Point03°C (87% RH)
AAT2.1°C
QNH1033 hPa
Density Alt-1,742 ft
Elevation33 ft
Report Wrong Elevation
Raw Report
LFBH 200130Z AUTO 04004KT CAVOK 05/03 Q1033=

Extra information for LFBH:More info

Metar Taf Metar & Taf Last 4 Metars F.Rules Stats Wind Profile Meteogram Temp Stats Airport Information Weather charts Add Link Nearby VenuesMetar ALERT Operation Metar Decoded Social comments